sensor_id;sensor_type;location;lat;lon;timestamp;P1;durP1;ratioP1;P2;durP2;ratioP2
43676;SDS011;29275;48.800;18.102;2023-02-15T00:02:47;5.88;;;4.30;;
43676;SDS011;29275;48.800;18.102;2023-02-15T00:05:49;6.15;;;4.00;;
43676;SDS011;29275;48.800;18.102;2023-02-15T00:08:53;4.35;;;2.78;;
43676;SDS011;29275;48.800;18.102;2023-02-15T00:11:56;4.50;;;1.88;;
43676;SDS011;29275;48.800;18.102;2023-02-15T00:14:58;8.38;;;4.88;;
43676;SDS011;29275;48.800;18.102;2023-02-15T00:18:01;10.65;;;4.93;;
43676;SDS011;29275;48.800;18.102;2023-02-15T00:21:05;11.18;;;6.30;;
43676;SDS011;29275;48.800;18.102;2023-02-15T00:24:09;13.88;;;5.07;;
43676;SDS011;29275;48.800;18.102;2023-02-15T00:27:13;7.05;;;3.67;;
43676;SDS011;29275;48.800;18.102;2023-02-15T00:30:15;11.70;;;5.70;;
43676;SDS011;29275;48.800;18.102;2023-02-15T00:33:18;6.43;;;4.18;;
43676;SDS011;29275;48.800;18.102;2023-02-15T00:36:21;9.88;;;5.00;;
43676;SDS011;29275;48.800;18.102;2023-02-15T00:39:24;5.93;;;2.72;;
43676;SDS011;29275;48.800;18.102;2023-02-15T00:42:27;7.85;;;3.03;;
43676;SDS011;29275;48.800;18.102;2023-02-15T00:45:30;7.20;;;2.13;;
43676;SDS011;29275;48.800;18.102;2023-02-15T00:48:32;5.70;;;3.47;;
43676;SDS011;29275;48.800;18.102;2023-02-15T00:51:35;8.52;;;3.58;;
43676;SDS011;29275;48.800;18.102;2023-02-15T00:54:37;5.57;;;2.83;;
43676;SDS011;29275;48.800;18.102;2023-02-15T00:57:41;6.32;;;2.95;;
43676;SDS011;29275;48.800;18.102;2023-02-15T01:00:44;9.68;;;4.32;;
43676;SDS011;29275;48.800;18.102;2023-02-15T01:03:48;3.97;;;2.92;;
43676;SDS011;29275;48.800;18.102;2023-02-15T01:06:51;13.85;;;4.95;;
43676;SDS011;29275;48.800;18.102;2023-02-15T01:09:54;5.43;;;3.05;;
43676;SDS011;29275;48.800;18.102;2023-02-15T01:12:56;4.47;;;2.58;;
43676;SDS011;29275;48.800;18.102;2023-02-15T01:15:59;5.05;;;2.00;;
43676;SDS011;29275;48.800;18.102;2023-02-15T01:19:02;5.35;;;2.30;;
43676;SDS011;29275;48.800;18.102;2023-02-15T01:22:06;3.97;;;2.22;;
43676;SDS011;29275;48.800;18.102;2023-02-15T01:25:09;8.25;;;2.83;;
43676;SDS011;29275;48.800;18.102;2023-02-15T01:28:12;7.30;;;3.00;;
43676;SDS011;29275;48.800;18.102;2023-02-15T01:31:15;5.28;;;2.10;;
43676;SDS011;29275;48.800;18.102;2023-02-15T01:34:19;5.20;;;2.67;;
43676;SDS011;29275;48.800;18.102;2023-02-15T01:37:22;5.20;;;2.78;;
43676;SDS011;29275;48.800;18.102;2023-02-15T01:40:25;6.28;;;2.78;;
43676;SDS011;29275;48.800;18.102;2023-02-15T01:43:41;6.13;;;2.83;;
43676;SDS011;29275;48.800;18.102;2023-02-15T01:46:45;6.22;;;2.38;;
43676;SDS011;29275;48.800;18.102;2023-02-15T01:49:56;11.70;;;3.58;;
43676;SDS011;29275;48.800;18.102;2023-02-15T01:56:24;6.65;;;3.95;;
43676;SDS011;29275;48.800;18.102;2023-02-15T01:59:30;7.82;;;3.25;;
43676;SDS011;29275;48.800;18.102;2023-02-15T02:02:34;4.57;;;1.90;;
43676;SDS011;29275;48.800;18.102;2023-02-15T02:05:38;19.23;;;9.75;;
43676;SDS011;29275;48.800;18.102;2023-02-15T02:08:41;3.65;;;2.05;;
43676;SDS011;29275;48.800;18.102;2023-02-15T02:11:44;3.78;;;1.70;;
43676;SDS011;29275;48.800;18.102;2023-02-15T02:14:50;4.80;;;3.20;;
43676;SDS011;29275;48.800;18.102;2023-02-15T02:21:37;4.72;;;1.83;;
43676;SDS011;29275;48.800;18.102;2023-02-15T02:34:50;3.25;;;2.15;;
43676;SDS011;29275;48.800;18.102;2023-02-15T02:44:59;2.05;;;1.85;;
43676;SDS011;29275;48.800;18.102;2023-02-15T02:48:13;16.73;;;12.30;;
43676;SDS011;29275;48.800;18.102;2023-02-15T02:54:39;2.85;;;1.58;;
43676;SDS011;29275;48.800;18.102;2023-02-15T02:57:48;5.97;;;2.90;;
43676;SDS011;29275;48.800;18.102;2023-02-15T03:00:56;7.43;;;3.95;;
43676;SDS011;29275;48.800;18.102;2023-02-15T03:04:05;4.57;;;1.38;;
43676;SDS011;29275;48.800;18.102;2023-02-15T03:07:12;2.05;;;0.90;;
43676;SDS011;29275;48.800;18.102;2023-02-15T03:10:18;7.25;;;2.03;;
43676;SDS011;29275;48.800;18.102;2023-02-15T03:13:25;6.25;;;2.25;;
43676;SDS011;29275;48.800;18.102;2023-02-15T03:16:28;5.40;;;2.45;;
43676;SDS011;29275;48.800;18.102;2023-02-15T03:19:32;4.35;;;1.73;;
43676;SDS011;29275;48.800;18.102;2023-02-15T03:22:48;2.35;;;1.33;;
43676;SDS011;29275;48.800;18.102;2023-02-15T03:25:58;1.73;;;1.20;;
43676;SDS011;29275;48.800;18.102;2023-02-15T03:29:07;5.22;;;2.30;;
43676;SDS011;29275;48.800;18.102;2023-02-15T03:32:11;3.75;;;1.75;;
43676;SDS011;29275;48.800;18.102;2023-02-15T03:35:15;2.75;;;1.88;;
43676;SDS011;29275;48.800;18.102;2023-02-15T03:38:20;3.33;;;1.52;;
43676;SDS011;29275;48.800;18.102;2023-02-15T03:41:32;2.00;;;1.30;;
43676;SDS011;29275;48.800;18.102;2023-02-15T03:44:42;3.45;;;1.63;;
43676;SDS011;29275;48.800;18.102;2023-02-15T03:47:55;4.03;;;1.73;;
43676;SDS011;29275;48.800;18.102;2023-02-15T03:51:07;3.65;;;1.58;;
43676;SDS011;29275;48.800;18.102;2023-02-15T03:54:31;28.25;;;13.23;;
43676;SDS011;29275;48.800;18.102;2023-02-15T03:57:44;18.13;;;6.70;;
43676;SDS011;29275;48.800;18.102;2023-02-15T04:01:10;4.38;;;1.75;;
43676;SDS011;29275;48.800;18.102;2023-02-15T04:04:38;2.95;;;1.38;;
43676;SDS011;29275;48.800;18.102;2023-02-15T04:07:43;4.03;;;2.33;;
43676;SDS011;29275;48.800;18.102;2023-02-15T04:10:46;4.68;;;0.98;;
43676;SDS011;29275;48.800;18.102;2023-02-15T04:13:54;4.00;;;1.70;;
43676;SDS011;29275;48.800;18.102;2023-02-15T04:16:58;3.30;;;1.48;;
43676;SDS011;29275;48.800;18.102;2023-02-15T04:20:01;7.20;;;3.17;;
43676;SDS011;29275;48.800;18.102;2023-02-15T04:23:22;3.45;;;1.88;;
43676;SDS011;29275;48.800;18.102;2023-02-15T04:26:43;4.13;;;1.52;;
43676;SDS011;29275;48.800;18.102;2023-02-15T04:29:46;1.85;;;1.05;;
43676;SDS011;29275;48.800;18.102;2023-02-15T04:32:53;4.10;;;2.00;;
43676;SDS011;29275;48.800;18.102;2023-02-15T04:35:56;6.38;;;1.33;;
43676;SDS011;29275;48.800;18.102;2023-02-15T04:38:58;1.98;;;1.23;;
43676;SDS011;29275;48.800;18.102;2023-02-15T04:42:01;6.40;;;1.60;;
43676;SDS011;29275;48.800;18.102;2023-02-15T04:45:04;3.40;;;1.25;;
43676;SDS011;29275;48.800;18.102;2023-02-15T04:48:07;3.58;;;1.95;;
43676;SDS011;29275;48.800;18.102;2023-02-15T04:51:10;2.22;;;1.23;;
43676;SDS011;29275;48.800;18.102;2023-02-15T04:54:13;2.08;;;1.40;;
43676;SDS011;29275;48.800;18.102;2023-02-15T04:57:15;1.90;;;1.23;;
43676;SDS011;29275;48.800;18.102;2023-02-15T05:00:18;2.92;;;1.73;;
43676;SDS011;29275;48.800;18.102;2023-02-15T05:03:21;3.05;;;1.85;;
43676;SDS011;29275;48.800;18.102;2023-02-15T05:06:23;4.00;;;1.73;;
43676;SDS011;29275;48.800;18.102;2023-02-15T05:09:26;2.78;;;1.63;;
43676;SDS011;29275;48.800;18.102;2023-02-15T05:12:29;4.57;;;2.00;;
43676;SDS011;29275;48.800;18.102;2023-02-15T05:15:32;5.70;;;2.20;;
43676;SDS011;29275;48.800;18.102;2023-02-15T05:18:34;3.40;;;1.42;;
43676;SDS011;29275;48.800;18.102;2023-02-15T05:21:37;6.15;;;2.85;;
43676;SDS011;29275;48.800;18.102;2023-02-15T05:24:39;4.13;;;2.15;;
43676;SDS011;29275;48.800;18.102;2023-02-15T05:28:01;4.47;;;1.73;;
43676;SDS011;29275;48.800;18.102;2023-02-15T05:31:22;4.70;;;2.38;;
43676;SDS011;29275;48.800;18.102;2023-02-15T05:34:25;5.93;;;3.60;;
43676;SDS011;29275;48.800;18.102;2023-02-15T05:37:28;6.32;;;3.50;;
43676;SDS011;29275;48.800;18.102;2023-02-15T05:40:31;6.03;;;3.60;;
43676;SDS011;29275;48.800;18.102;2023-02-15T05:43:34;7.13;;;4.30;;
43676;SDS011;29275;48.800;18.102;2023-02-15T05:46:37;6.40;;;2.55;;
43676;SDS011;29275;48.800;18.102;2023-02-15T05:49:40;2.25;;;1.40;;
43676;SDS011;29275;48.800;18.102;2023-02-15T05:52:43;4.13;;;1.67;;
43676;SDS011;29275;48.800;18.102;2023-02-15T05:55:47;5.82;;;2.33;;
43676;SDS011;29275;48.800;18.102;2023-02-15T05:58:52;5.78;;;2.10;;
43676;SDS011;29275;48.800;18.102;2023-02-15T06:01:55;3.00;;;1.23;;
43676;SDS011;29275;48.800;18.102;2023-02-15T06:04:58;2.65;;;1.58;;
43676;SDS011;29275;48.800;18.102;2023-02-15T06:08:01;7.95;;;3.63;;
43676;SDS011;29275;48.800;18.102;2023-02-15T06:11:07;4.35;;;2.22;;
43676;SDS011;29275;48.800;18.102;2023-02-15T06:14:10;5.15;;;1.63;;
43676;SDS011;29275;48.800;18.102;2023-02-15T06:17:13;5.10;;;2.45;;
43676;SDS011;29275;48.800;18.102;2023-02-15T06:20:16;4.88;;;1.90;;
43676;SDS011;29275;48.800;18.102;2023-02-15T06:23:19;3.30;;;1.95;;
43676;SDS011;29275;48.800;18.102;2023-02-15T06:26:22;4.55;;;1.83;;
43676;SDS011;29275;48.800;18.102;2023-02-15T06:29:25;5.90;;;2.97;;
43676;SDS011;29275;48.800;18.102;2023-02-15T06:32:28;6.00;;;3.65;;
43676;SDS011;29275;48.800;18.102;2023-02-15T06:35:33;11.07;;;5.13;;
43676;SDS011;29275;48.800;18.102;2023-02-15T06:38:35;5.40;;;3.05;;
43676;SDS011;29275;48.800;18.102;2023-02-15T06:41:41;9.23;;;5.57;;
43676;SDS011;29275;48.800;18.102;2023-02-15T06:44:44;3.45;;;2.50;;
43676;SDS011;29275;48.800;18.102;2023-02-15T06:47:47;12.98;;;7.25;;
43676;SDS011;29275;48.800;18.102;2023-02-15T06:50:50;9.43;;;3.70;;
43676;SDS011;29275;48.800;18.102;2023-02-15T06:53:53;5.93;;;2.90;;
43676;SDS011;29275;48.800;18.102;2023-02-15T06:56:55;17.88;;;7.95;;
43676;SDS011;29275;48.800;18.102;2023-02-15T06:59:58;29.20;;;11.25;;
43676;SDS011;29275;48.800;18.102;2023-02-15T07:03:01;40.70;;;18.02;;
43676;SDS011;29275;48.800;18.102;2023-02-15T07:06:07;92.47;;;31.92;;
43676;SDS011;29275;48.800;18.102;2023-02-15T07:09:13;26.60;;;10.50;;
43676;SDS011;29275;48.800;18.102;2023-02-15T07:12:15;15.38;;;7.63;;
43676;SDS011;29275;48.800;18.102;2023-02-15T07:15:37;14.45;;;6.70;;
43676;SDS011;29275;48.800;18.102;2023-02-15T07:18:40;33.50;;;13.90;;
43676;SDS011;29275;48.800;18.102;2023-02-15T07:21:43;17.15;;;8.07;;
43676;SDS011;29275;48.800;18.102;2023-02-15T07:24:48;13.10;;;5.75;;
43676;SDS011;29275;48.800;18.102;2023-02-15T07:27:58;9.63;;;4.15;;
43676;SDS011;29275;48.800;18.102;2023-02-15T07:31:05;22.15;;;8.93;;
43676;SDS011;29275;48.800;18.102;2023-02-15T07:34:08;34.63;;;15.60;;
43676;SDS011;29275;48.800;18.102;2023-02-15T07:37:11;54.42;;;26.55;;
43676;SDS011;29275;48.800;18.102;2023-02-15T07:40:13;61.88;;;27.08;;
43676;SDS011;29275;48.800;18.102;2023-02-15T07:43:17;30.73;;;14.57;;
43676;SDS011;29275;48.800;18.102;2023-02-15T07:46:20;21.02;;;10.23;;
43676;SDS011;29275;48.800;18.102;2023-02-15T07:49:24;38.60;;;18.17;;
43676;SDS011;29275;48.800;18.102;2023-02-15T07:52:26;26.10;;;12.23;;
43676;SDS011;29275;48.800;18.102;2023-02-15T07:55:30;16.88;;;8.27;;
43676;SDS011;29275;48.800;18.102;2023-02-15T07:58:33;21.23;;;10.80;;
43676;SDS011;29275;48.800;18.102;2023-02-15T08:01:55;10.63;;;5.93;;
43676;SDS011;29275;48.800;18.102;2023-02-15T08:04:59;14.75;;;6.68;;
43676;SDS011;29275;48.800;18.102;2023-02-15T08:08:02;8.13;;;3.92;;
43676;SDS011;29275;48.800;18.102;2023-02-15T08:11:07;10.13;;;4.78;;
43676;SDS011;29275;48.800;18.102;2023-02-15T08:14:28;9.48;;;4.10;;
43676;SDS011;29275;48.800;18.102;2023-02-15T08:17:30;11.70;;;4.40;;
43676;SDS011;29275;48.800;18.102;2023-02-15T08:20:33;8.50;;;4.30;;
43676;SDS011;29275;48.800;18.102;2023-02-15T08:23:35;10.98;;;5.50;;
43676;SDS011;29275;48.800;18.102;2023-02-15T08:26:39;8.05;;;4.55;;
43676;SDS011;29275;48.800;18.102;2023-02-15T08:29:43;10.98;;;5.63;;
43676;SDS011;29275;48.800;18.102;2023-02-15T08:32:46;12.73;;;5.35;;
43676;SDS011;29275;48.800;18.102;2023-02-15T08:35:49;9.70;;;3.97;;
43676;SDS011;29275;48.800;18.102;2023-02-15T08:38:51;13.52;;;6.35;;
43676;SDS011;29275;48.800;18.102;2023-02-15T08:41:54;9.60;;;4.65;;
43676;SDS011;29275;48.800;18.102;2023-02-15T08:44:57;13.48;;;5.43;;
43676;SDS011;29275;48.800;18.102;2023-02-15T08:48:00;7.82;;;4.65;;
43676;SDS011;29275;48.800;18.102;2023-02-15T08:51:07;8.70;;;5.35;;
43676;SDS011;29275;48.800;18.102;2023-02-15T08:59:03;14.43;;;5.28;;
43676;SDS011;29275;48.800;18.102;2023-02-15T09:02:09;12.90;;;5.55;;
43676;SDS011;29275;48.800;18.102;2023-02-15T09:09:32;19.93;;;8.03;;
43676;SDS011;29275;48.800;18.102;2023-02-15T09:12:35;10.98;;;5.63;;
43676;SDS011;29275;48.800;18.102;2023-02-15T09:15:37;12.75;;;5.25;;
43676;SDS011;29275;48.800;18.102;2023-02-15T09:18:40;12.32;;;5.10;;
43676;SDS011;29275;48.800;18.102;2023-02-15T09:21:43;16.40;;;6.20;;
43676;SDS011;29275;48.800;18.102;2023-02-15T09:24:45;16.83;;;6.13;;
43676;SDS011;29275;48.800;18.102;2023-02-15T09:27:48;11.88;;;5.13;;
43676;SDS011;29275;48.800;18.102;2023-02-15T09:30:51;12.20;;;6.13;;
43676;SDS011;29275;48.800;18.102;2023-02-15T09:33:55;6.57;;;3.20;;
43676;SDS011;29275;48.800;18.102;2023-02-15T09:36:58;10.45;;;4.20;;
43676;SDS011;29275;48.800;18.102;2023-02-15T09:40:01;10.70;;;5.30;;
43676;SDS011;29275;48.800;18.102;2023-02-15T09:43:07;11.90;;;4.95;;
43676;SDS011;29275;48.800;18.102;2023-02-15T09:56:19;13.50;;;6.55;;
43676;SDS011;29275;48.800;18.102;2023-02-15T09:59:38;8.25;;;4.28;;
43676;SDS011;29275;48.800;18.102;2023-02-15T10:09:54;10.55;;;4.70;;
43676;SDS011;29275;48.800;18.102;2023-02-15T10:13:01;7.82;;;3.90;;
43676;SDS011;29275;48.800;18.102;2023-02-15T10:16:20;9.60;;;4.85;;
43676;SDS011;29275;48.800;18.102;2023-02-15T10:26:22;11.68;;;5.85;;
43676;SDS011;29275;48.800;18.102;2023-02-15T10:29:36;10.68;;;5.70;;
43676;SDS011;29275;48.800;18.102;2023-02-15T10:32:59;10.05;;;5.38;;
43676;SDS011;29275;48.800;18.102;2023-02-15T10:53:58;9.65;;;5.35;;
43676;SDS011;29275;48.800;18.102;2023-02-15T11:04:17;8.30;;;4.55;;
43676;SDS011;29275;48.800;18.102;2023-02-15T11:10:34;8.80;;;5.05;;
43676;SDS011;29275;48.800;18.102;2023-02-15T11:13:46;9.52;;;5.25;;
43676;SDS011;29275;48.800;18.102;2023-02-15T11:20:02;13.10;;;4.90;;
43676;SDS011;29275;48.800;18.102;2023-02-15T11:23:13;9.57;;;4.53;;
43676;SDS011;29275;48.800;18.102;2023-02-15T11:29:48;11.27;;;5.53;;
43676;SDS011;29275;48.800;18.102;2023-02-15T11:32:56;10.95;;;6.15;;
43676;SDS011;29275;48.800;18.102;2023-02-15T11:36:02;8.90;;;5.30;;
43676;SDS011;29275;48.800;18.102;2023-02-15T11:42:14;10.20;;;4.82;;
43676;SDS011;29275;48.800;18.102;2023-02-15T11:45:22;16.90;;;4.75;;
43676;SDS011;29275;48.800;18.102;2023-02-15T11:48:30;9.07;;;5.13;;
43676;SDS011;29275;48.800;18.102;2023-02-15T11:51:34;8.88;;;4.82;;
43676;SDS011;29275;48.800;18.102;2023-02-15T11:54:39;9.75;;;5.50;;
43676;SDS011;29275;48.800;18.102;2023-02-15T11:57:45;11.18;;;5.85;;
43676;SDS011;29275;48.800;18.102;2023-02-15T12:00:54;11.13;;;5.25;;
43676;SDS011;29275;48.800;18.102;2023-02-15T12:07:44;11.82;;;5.63;;
43676;SDS011;29275;48.800;18.102;2023-02-15T12:14:14;11.88;;;5.57;;
43676;SDS011;29275;48.800;18.102;2023-02-15T12:17:20;17.30;;;8.10;;
43676;SDS011;29275;48.800;18.102;2023-02-15T12:20:24;10.95;;;6.18;;
43676;SDS011;29275;48.800;18.102;2023-02-15T12:26:34;13.48;;;6.47;;
43676;SDS011;29275;48.800;18.102;2023-02-15T12:29:41;12.20;;;7.20;;
43676;SDS011;29275;48.800;18.102;2023-02-15T12:32:59;12.85;;;6.68;;
43676;SDS011;29275;48.800;18.102;2023-02-15T12:36:29;13.07;;;7.07;;
43676;SDS011;29275;48.800;18.102;2023-02-15T12:39:34;15.95;;;5.88;;
43676;SDS011;29275;48.800;18.102;2023-02-15T12:42:41;11.90;;;5.75;;
43676;SDS011;29275;48.800;18.102;2023-02-15T12:45:45;14.25;;;6.88;;
43676;SDS011;29275;48.800;18.102;2023-02-15T12:48:56;12.63;;;6.95;;
43676;SDS011;29275;48.800;18.102;2023-02-15T12:55:25;14.77;;;6.97;;
43676;SDS011;29275;48.800;18.102;2023-02-15T12:58:33;14.45;;;6.20;;
43676;SDS011;29275;48.800;18.102;2023-02-15T13:01:36;13.18;;;6.63;;
43676;SDS011;29275;48.800;18.102;2023-02-15T13:04:46;12.48;;;6.38;;
43676;SDS011;29275;48.800;18.102;2023-02-15T13:07:51;15.30;;;6.05;;
43676;SDS011;29275;48.800;18.102;2023-02-15T13:11:02;12.20;;;6.53;;
43676;SDS011;29275;48.800;18.102;2023-02-15T13:14:19;9.05;;;5.85;;
43676;SDS011;29275;48.800;18.102;2023-02-15T13:17:28;12.20;;;6.40;;
43676;SDS011;29275;48.800;18.102;2023-02-15T13:20:34;13.00;;;6.75;;
43676;SDS011;29275;48.800;18.102;2023-02-15T13:23:37;13.05;;;7.35;;
43676;SDS011;29275;48.800;18.102;2023-02-15T13:26:41;15.48;;;6.95;;
43676;SDS011;29275;48.800;18.102;2023-02-15T13:29:50;17.55;;;7.43;;
43676;SDS011;29275;48.800;18.102;2023-02-15T13:32:56;17.38;;;8.27;;
43676;SDS011;29275;48.800;18.102;2023-02-15T13:43:02;17.97;;;8.30;;
43676;SDS011;29275;48.800;18.102;2023-02-15T13:46:35;15.82;;;7.57;;
43676;SDS011;29275;48.800;18.102;2023-02-15T14:03:05;16.85;;;8.10;;
43676;SDS011;29275;48.800;18.102;2023-02-15T14:09:52;20.00;;;11.02;;
43676;SDS011;29275;48.800;18.102;2023-02-15T14:16:42;18.20;;;8.60;;
43676;SDS011;29275;48.800;18.102;2023-02-15T14:26:59;16.45;;;8.25;;
43676;SDS011;29275;48.800;18.102;2023-02-15T14:30:34;17.77;;;8.98;;
43676;SDS011;29275;48.800;18.102;2023-02-15T14:33:40;17.25;;;8.70;;
43676;SDS011;29275;48.800;18.102;2023-02-15T14:36:49;19.67;;;9.55;;
43676;SDS011;29275;48.800;18.102;2023-02-15T14:40:56;16.95;;;9.13;;
43676;SDS011;29275;48.800;18.102;2023-02-15T14:47:33;19.17;;;9.82;;
43676;SDS011;29275;48.800;18.102;2023-02-15T14:50:39;20.00;;;10.75;;
43676;SDS011;29275;48.800;18.102;2023-02-15T14:53:45;16.90;;;9.38;;
43676;SDS011;29275;48.800;18.102;2023-02-15T15:00:04;16.58;;;9.38;;
43676;SDS011;29275;48.800;18.102;2023-02-15T15:03:36;23.55;;;10.93;;
43676;SDS011;29275;48.800;18.102;2023-02-15T15:06:42;18.80;;;9.80;;
43676;SDS011;29275;48.800;18.102;2023-02-15T15:09:46;20.65;;;10.77;;
43676;SDS011;29275;48.800;18.102;2023-02-15T15:13:33;22.33;;;11.02;;
43676;SDS011;29275;48.800;18.102;2023-02-15T15:29:39;22.45;;;10.60;;
43676;SDS011;29275;48.800;18.102;2023-02-15T15:46:28;24.15;;;11.25;;
43676;SDS011;29275;48.800;18.102;2023-02-15T15:49:56;26.80;;;12.10;;
43676;SDS011;29275;48.800;18.102;2023-02-15T15:53:00;22.65;;;10.95;;
43676;SDS011;29275;48.800;18.102;2023-02-15T15:56:05;17.30;;;9.20;;
43676;SDS011;29275;48.800;18.102;2023-02-15T15:59:14;16.63;;;8.15;;
43676;SDS011;29275;48.800;18.102;2023-02-15T16:02:21;21.27;;;8.82;;
43676;SDS011;29275;48.800;18.102;2023-02-15T16:05:25;26.17;;;10.45;;
43676;SDS011;29275;48.800;18.102;2023-02-15T16:08:29;28.13;;;14.35;;
43676;SDS011;29275;48.800;18.102;2023-02-15T16:11:32;25.10;;;13.52;;
43676;SDS011;29275;48.800;18.102;2023-02-15T16:14:37;26.33;;;13.30;;
43676;SDS011;29275;48.800;18.102;2023-02-15T16:17:41;25.83;;;14.05;;
43676;SDS011;29275;48.800;18.102;2023-02-15T16:20:48;31.95;;;15.32;;
43676;SDS011;29275;48.800;18.102;2023-02-15T16:24:06;34.28;;;15.98;;
43676;SDS011;29275;48.800;18.102;2023-02-15T16:27:27;31.52;;;15.30;;
43676;SDS011;29275;48.800;18.102;2023-02-15T16:30:40;23.42;;;11.30;;
43676;SDS011;29275;48.800;18.102;2023-02-15T16:33:44;27.73;;;10.68;;
43676;SDS011;29275;48.800;18.102;2023-02-15T16:36:48;22.63;;;12.57;;
43676;SDS011;29275;48.800;18.102;2023-02-15T16:39:53;33.72;;;15.52;;
43676;SDS011;29275;48.800;18.102;2023-02-15T16:43:01;38.75;;;19.60;;
43676;SDS011;29275;48.800;18.102;2023-02-15T16:46:10;37.55;;;18.42;;
43676;SDS011;29275;48.800;18.102;2023-02-15T16:49:20;38.13;;;19.17;;
43676;SDS011;29275;48.800;18.102;2023-02-15T16:52:25;39.22;;;18.85;;
43676;SDS011;29275;48.800;18.102;2023-02-15T16:55:30;35.65;;;16.00;;
43676;SDS011;29275;48.800;18.102;2023-02-15T16:58:41;22.35;;;13.15;;
43676;SDS011;29275;48.800;18.102;2023-02-15T17:01:45;27.10;;;14.45;;
43676;SDS011;29275;48.800;18.102;2023-02-15T17:08:32;30.77;;;14.70;;
43676;SDS011;29275;48.800;18.102;2023-02-15T17:11:39;25.48;;;12.82;;
43676;SDS011;29275;48.800;18.102;2023-02-15T17:17:46;26.70;;;12.40;;
43676;SDS011;29275;48.800;18.102;2023-02-15T17:20:49;29.77;;;12.77;;
43676;SDS011;29275;48.800;18.102;2023-02-15T17:23:56;24.00;;;10.40;;
43676;SDS011;29275;48.800;18.102;2023-02-15T17:30:31;19.50;;;10.63;;
43676;SDS011;29275;48.800;18.102;2023-02-15T17:33:37;21.00;;;9.77;;
43676;SDS011;29275;48.800;18.102;2023-02-15T17:36:56;22.85;;;11.25;;
43676;SDS011;29275;48.800;18.102;2023-02-15T17:40:01;23.92;;;11.57;;
43676;SDS011;29275;48.800;18.102;2023-02-15T17:43:17;40.58;;;18.67;;
43676;SDS011;29275;48.800;18.102;2023-02-15T17:46:20;35.13;;;16.65;;
43676;SDS011;29275;48.800;18.102;2023-02-15T17:49:25;42.85;;;20.63;;
43676;SDS011;29275;48.800;18.102;2023-02-15T17:52:36;33.17;;;14.95;;
43676;SDS011;29275;48.800;18.102;2023-02-15T17:55:39;21.92;;;11.07;;
43676;SDS011;29275;48.800;18.102;2023-02-15T17:58:42;18.08;;;9.93;;
43676;SDS011;29275;48.800;18.102;2023-02-15T18:01:46;24.42;;;10.82;;
43676;SDS011;29275;48.800;18.102;2023-02-15T18:05:12;20.65;;;9.45;;
43676;SDS011;29275;48.800;18.102;2023-02-15T18:08:34;49.85;;;22.17;;
43676;SDS011;29275;48.800;18.102;2023-02-15T18:11:56;29.73;;;13.20;;
43676;SDS011;29275;48.800;18.102;2023-02-15T18:14:59;25.38;;;10.50;;
43676;SDS011;29275;48.800;18.102;2023-02-15T18:18:11;28.25;;;13.30;;
43676;SDS011;29275;48.800;18.102;2023-02-15T18:21:15;20.15;;;10.80;;
43676;SDS011;29275;48.800;18.102;2023-02-15T18:24:21;18.48;;;8.85;;
43676;SDS011;29275;48.800;18.102;2023-02-15T18:27:25;26.08;;;9.13;;
43676;SDS011;29275;48.800;18.102;2023-02-15T18:30:28;17.85;;;8.07;;
43676;SDS011;29275;48.800;18.102;2023-02-15T18:33:33;19.00;;;7.70;;
43676;SDS011;29275;48.800;18.102;2023-02-15T18:36:43;18.17;;;8.77;;
43676;SDS011;29275;48.800;18.102;2023-02-15T18:39:48;18.58;;;9.40;;
43676;SDS011;29275;48.800;18.102;2023-02-15T18:42:51;20.75;;;8.57;;
43676;SDS011;29275;48.800;18.102;2023-02-15T18:45:55;21.88;;;9.95;;
43676;SDS011;29275;48.800;18.102;2023-02-15T18:48:58;21.52;;;9.55;;
43676;SDS011;29275;48.800;18.102;2023-02-15T18:52:01;18.92;;;9.93;;
43676;SDS011;29275;48.800;18.102;2023-02-15T18:55:12;17.52;;;10.15;;
43676;SDS011;29275;48.800;18.102;2023-02-15T18:58:24;18.15;;;7.93;;
43676;SDS011;29275;48.800;18.102;2023-02-15T19:01:29;19.25;;;8.27;;
43676;SDS011;29275;48.800;18.102;2023-02-15T19:04:32;19.48;;;8.18;;
43676;SDS011;29275;48.800;18.102;2023-02-15T19:07:35;22.33;;;8.63;;
43676;SDS011;29275;48.800;18.102;2023-02-15T19:10:38;17.35;;;7.18;;
43676;SDS011;29275;48.800;18.102;2023-02-15T19:13:42;19.77;;;8.20;;
43676;SDS011;29275;48.800;18.102;2023-02-15T19:16:45;16.23;;;7.18;;
43676;SDS011;29275;48.800;18.102;2023-02-15T19:19:49;15.02;;;7.72;;
43676;SDS011;29275;48.800;18.102;2023-02-15T19:22:52;14.10;;;7.18;;
43676;SDS011;29275;48.800;18.102;2023-02-15T19:25:57;14.55;;;7.47;;
43676;SDS011;29275;48.800;18.102;2023-02-15T19:29:00;12.40;;;6.38;;
43676;SDS011;29275;48.800;18.102;2023-02-15T19:32:03;20.05;;;8.48;;
43676;SDS011;29275;48.800;18.102;2023-02-15T19:35:12;15.98;;;7.45;;
43676;SDS011;29275;48.800;18.102;2023-02-15T19:38:17;16.13;;;8.35;;
43676;SDS011;29275;48.800;18.102;2023-02-15T19:41:31;17.17;;;7.35;;
43676;SDS011;29275;48.800;18.102;2023-02-15T19:44:36;16.35;;;7.60;;
43676;SDS011;29275;48.800;18.102;2023-02-15T19:47:41;13.05;;;5.95;;
43676;SDS011;29275;48.800;18.102;2023-02-15T19:50:44;18.65;;;9.13;;
43676;SDS011;29275;48.800;18.102;2023-02-15T19:53:48;40.78;;;18.98;;
43676;SDS011;29275;48.800;18.102;2023-02-15T19:56:51;66.70;;;26.98;;
43676;SDS011;29275;48.800;18.102;2023-02-15T19:59:53;72.30;;;28.02;;
43676;SDS011;29275;48.800;18.102;2023-02-15T20:02:57;24.05;;;10.82;;
43676;SDS011;29275;48.800;18.102;2023-02-15T20:06:01;23.23;;;11.48;;
43676;SDS011;29275;48.800;18.102;2023-02-15T20:09:04;40.50;;;18.88;;
43676;SDS011;29275;48.800;18.102;2023-02-15T20:12:18;28.83;;;13.38;;
43676;SDS011;29275;48.800;18.102;2023-02-15T20:18:29;16.20;;;7.35;;
43676;SDS011;29275;48.800;18.102;2023-02-15T20:21:32;22.17;;;9.55;;
43676;SDS011;29275;48.800;18.102;2023-02-15T20:24:37;18.63;;;9.10;;
43676;SDS011;29275;48.800;18.102;2023-02-15T20:27:40;18.77;;;9.68;;
43676;SDS011;29275;48.800;18.102;2023-02-15T20:30:45;24.73;;;9.98;;
43676;SDS011;29275;48.800;18.102;2023-02-15T20:33:49;16.83;;;9.05;;
43676;SDS011;29275;48.800;18.102;2023-02-15T20:36:52;12.93;;;7.82;;
43676;SDS011;29275;48.800;18.102;2023-02-15T20:39:55;17.75;;;7.50;;
43676;SDS011;29275;48.800;18.102;2023-02-15T20:42:58;21.10;;;10.15;;
43676;SDS011;29275;48.800;18.102;2023-02-15T20:46:02;14.60;;;7.85;;
43676;SDS011;29275;48.800;18.102;2023-02-15T20:49:05;36.42;;;15.93;;
43676;SDS011;29275;48.800;18.102;2023-02-15T20:52:15;29.25;;;13.82;;
43676;SDS011;29275;48.800;18.102;2023-02-15T20:55:25;46.58;;;19.58;;
43676;SDS011;29275;48.800;18.102;2023-02-15T20:58:35;73.95;;;24.77;;
43676;SDS011;29275;48.800;18.102;2023-02-15T21:01:39;93.15;;;31.08;;
43676;SDS011;29275;48.800;18.102;2023-02-15T21:04:45;62.90;;;21.85;;
43676;SDS011;29275;48.800;18.102;2023-02-15T21:07:48;66.07;;;25.55;;
43676;SDS011;29275;48.800;18.102;2023-02-15T21:10:52;55.25;;;23.30;;
43676;SDS011;29275;48.800;18.102;2023-02-15T21:13:56;41.30;;;18.70;;
43676;SDS011;29275;48.800;18.102;2023-02-15T21:16:59;36.63;;;17.30;;
43676;SDS011;29275;48.800;18.102;2023-02-15T21:20:02;21.88;;;11.85;;
43676;SDS011;29275;48.800;18.102;2023-02-15T21:23:05;32.42;;;14.73;;
43676;SDS011;29275;48.800;18.102;2023-02-15T21:26:19;24.38;;;11.93;;
43676;SDS011;29275;48.800;18.102;2023-02-15T21:29:28;19.98;;;9.60;;